sensor_id;sensor_type;location;lat;lon;timestamp;pressure;altitude;pressure_sealevel;temperature;humidity
69411;BME280;56604;48.652;9.194;2023-01-29T00:01:02;97249.78;;;-0.54;82.46
69411;BME280;56604;48.652;9.194;2023-01-29T00:03:28;97246.66;;;-0.65;83.37
69411;BME280;56604;48.652;9.194;2023-01-29T00:05:53;97254.81;;;-0.78;82.84
69411;BME280;56604;48.652;9.194;2023-01-29T00:08:18;97249.63;;;-0.78;82.68
69411;BME280;56604;48.652;9.194;2023-01-29T00:10:44;97248.41;;;-0.66;83.14
69411;BME280;56604;48.652;9.194;2023-01-29T00:13:09;97247.47;;;-0.65;82.84
69411;BME280;56604;48.652;9.194;2023-01-29T00:15:34;97247.72;;;-0.76;83.16
69411;BME280;56604;48.652;9.194;2023-01-29T00:18:00;97239.06;;;-0.93;83.56
69411;BME280;56604;48.652;9.194;2023-01-29T00:20:25;97242.16;;;-0.89;84.04
69411;BME280;56604;48.652;9.194;2023-01-29T00:22:50;97238.88;;;-0.74;83.12
69411;BME280;56604;48.652;9.194;2023-01-29T00:25:16;97229.97;;;-0.79;83.41
69411;BME280;56604;48.652;9.194;2023-01-29T00:27:41;97241.44;;;-0.74;83.68
69411;BME280;56604;48.652;9.194;2023-01-29T00:30:08;97247.88;;;-0.78;83.36
69411;BME280;56604;48.652;9.194;2023-01-29T00:32:37;97247.19;;;-0.80;83.71
69411;BME280;56604;48.652;9.194;2023-01-29T00:35:03;97241.91;;;-0.78;83.46
69411;BME280;56604;48.652;9.194;2023-01-29T00:37:29;97242.19;;;-0.81;83.87
69411;BME280;56604;48.652;9.194;2023-01-29T00:39:55;97243.00;;;-0.81;83.75
69411;BME280;56604;48.652;9.194;2023-01-29T00:42:20;97239.66;;;-0.73;83.57
69411;BME280;56604;48.652;9.194;2023-01-29T00:45:04;97238.66;;;-0.80;83.90
69411;BME280;56604;48.652;9.194;2023-01-29T00:47:30;97235.72;;;-0.85;83.37
69411;BME280;56604;48.652;9.194;2023-01-29T00:49:57;97237.53;;;-0.78;83.44
69411;BME280;56604;48.652;9.194;2023-01-29T00:52:23;97239.94;;;-0.84;83.82
69411;BME280;56604;48.652;9.194;2023-01-29T00:54:48;97232.53;;;-0.79;83.19
69411;BME280;56604;48.652;9.194;2023-01-29T00:57:14;97237.03;;;-0.81;83.41
69411;BME280;56604;48.652;9.194;2023-01-29T00:59:39;97242.09;;;-0.72;82.91
69411;BME280;56604;48.652;9.194;2023-01-29T01:02:04;97238.09;;;-0.66;82.72
69411;BME280;56604;48.652;9.194;2023-01-29T01:04:49;97242.19;;;-0.81;81.94
69411;BME280;56604;48.652;9.194;2023-01-29T01:07:14;97232.88;;;-0.74;82.22
69411;BME280;56604;48.652;9.194;2023-01-29T01:09:40;97223.69;;;-0.77;82.99
69411;BME280;56604;48.652;9.194;2023-01-29T01:12:24;97230.03;;;-0.63;82.91
69411;BME280;56604;48.652;9.194;2023-01-29T01:14:49;97234.69;;;-0.66;82.63
69411;BME280;56604;48.652;9.194;2023-01-29T01:17:15;97229.03;;;-0.70;81.96
69411;BME280;56604;48.652;9.194;2023-01-29T01:19:40;97234.00;;;-0.77;82.24
69411;BME280;56604;48.652;9.194;2023-01-29T01:22:06;97247.88;;;-0.78;82.03
69411;BME280;56604;48.652;9.194;2023-01-29T01:24:32;97241.22;;;-0.80;82.88
69411;BME280;56604;48.652;9.194;2023-01-29T01:26:57;97237.41;;;-0.76;82.82
69411;BME280;56604;48.652;9.194;2023-01-29T01:29:22;97230.53;;;-0.85;82.86
69411;BME280;56604;48.652;9.194;2023-01-29T01:31:48;97233.34;;;-0.79;83.22
69411;BME280;56604;48.652;9.194;2023-01-29T01:34:14;97232.31;;;-0.86;83.01
69411;BME280;56604;48.652;9.194;2023-01-29T01:36:39;97229.97;;;-0.79;82.81
69411;BME280;56604;48.652;9.194;2023-01-29T01:39:05;97231.53;;;-0.86;82.42
69411;BME280;56604;48.652;9.194;2023-01-29T01:41:31;97228.94;;;-0.86;82.85
69411;BME280;56604;48.652;9.194;2023-01-29T01:43:59;97222.53;;;-0.74;82.80
69411;BME280;56604;48.652;9.194;2023-01-29T01:46:28;97226.09;;;-0.75;82.67
69411;BME280;56604;48.652;9.194;2023-01-29T01:48:57;97217.75;;;-0.69;82.82
69411;BME280;56604;48.652;9.194;2023-01-29T01:51:25;97223.78;;;-0.86;83.48
69411;BME280;56604;48.652;9.194;2023-01-29T01:54:00;97227.06;;;-0.76;83.09
69411;BME280;56604;48.652;9.194;2023-01-29T01:56:31;97218.66;;;-0.78;83.18
69411;BME280;56604;48.652;9.194;2023-01-29T01:59:05;97209.31;;;-0.79;83.19
69411;BME280;56604;48.652;9.194;2023-01-29T02:01:31;97214.16;;;-0.76;82.98
69411;BME280;56604;48.652;9.194;2023-01-29T02:04:04;97223.88;;;-0.70;83.27
69411;BME280;56604;48.652;9.194;2023-01-29T02:06:50;97216.88;;;-0.78;82.74
69411;BME280;56604;48.652;9.194;2023-01-29T02:09:38;97219.34;;;-0.76;82.71
69411;BME280;56604;48.652;9.194;2023-01-29T02:12:08;97219.16;;;-0.75;82.95
69411;BME280;56604;48.652;9.194;2023-01-29T02:14:36;97225.66;;;-0.97;84.36
69411;BME280;56604;48.652;9.194;2023-01-29T02:17:07;97225.38;;;-0.85;83.35
69411;BME280;56604;48.652;9.194;2023-01-29T02:20:10;97233.47;;;-0.80;83.57
69411;BME280;56604;48.652;9.194;2023-01-29T02:22:45;97230.16;;;-0.73;83.45
69411;BME280;56604;48.652;9.194;2023-01-29T02:25:26;97234.56;;;-0.65;82.59
69411;BME280;56604;48.652;9.194;2023-01-29T02:33:50;97237.03;;;-0.81;83.60
69411;BME280;56604;48.652;9.194;2023-01-29T02:36:30;97231.88;;;-0.81;83.00
69411;BME280;56604;48.652;9.194;2023-01-29T02:39:11;97229.75;;;-0.86;82.64
69411;BME280;56604;48.652;9.194;2023-01-29T02:47:21;97239.13;;;-0.85;83.33
69411;BME280;56604;48.652;9.194;2023-01-29T02:50:03;97240.63;;;-0.74;82.53
69411;BME280;56604;48.652;9.194;2023-01-29T02:52:38;97236.19;;;-0.90;82.44
69411;BME280;56604;48.652;9.194;2023-01-29T02:55:10;97238.16;;;-0.84;82.26
69411;BME280;56604;48.652;9.194;2023-01-29T02:57:40;97234.22;;;-0.96;82.90
69411;BME280;56604;48.652;9.194;2023-01-29T03:00:12;97244.72;;;-0.89;82.95
69411;BME280;56604;48.652;9.194;2023-01-29T03:02:48;97236.63;;;-0.95;83.05
69411;BME280;56604;48.652;9.194;2023-01-29T03:05:22;97241.78;;;-0.95;83.55
69411;BME280;56604;48.652;9.194;2023-01-29T03:07:53;97227.94;;;-0.94;82.85
69411;BME280;56604;48.652;9.194;2023-01-29T03:10:34;97230.72;;;-0.87;82.89
69411;BME280;56604;48.652;9.194;2023-01-29T03:13:20;97229.25;;;-0.89;82.85
69411;BME280;56604;48.652;9.194;2023-01-29T03:15:51;97233.09;;;-0.68;81.24
69411;BME280;56604;48.652;9.194;2023-01-29T03:18:27;97216.34;;;-0.89;82.09
69411;BME280;56604;48.652;9.194;2023-01-29T03:20:59;97221.56;;;-0.81;82.04
69411;BME280;56604;48.652;9.194;2023-01-29T03:23:29;97217.38;;;-0.74;81.81
69411;BME280;56604;48.652;9.194;2023-01-29T03:26:15;97220.63;;;-0.72;81.05
69411;BME280;56604;48.652;9.194;2023-01-29T03:29:02;97225.78;;;-0.72;80.26
69411;BME280;56604;48.652;9.194;2023-01-29T03:31:48;97221.50;;;-0.89;80.72
69411;BME280;56604;48.652;9.194;2023-01-29T03:34:29;97230.84;;;-0.88;81.21
69411;BME280;56604;48.652;9.194;2023-01-29T03:37:07;97233.19;;;-1.03;81.57
69411;BME280;56604;48.652;9.194;2023-01-29T03:39:34;97226.31;;;-0.95;81.68
69411;BME280;56604;48.652;9.194;2023-01-29T03:42:33;97227.59;;;-0.99;82.29
69411;BME280;56604;48.652;9.194;2023-01-29T03:45:27;97225.00;;;-0.99;81.77
69411;BME280;56604;48.652;9.194;2023-01-29T03:48:10;97226.91;;;-1.01;81.81
69411;BME280;56604;48.652;9.194;2023-01-29T03:51:00;97222.56;;;-1.00;81.37
69411;BME280;56604;48.652;9.194;2023-01-29T03:56:24;97228.25;;;-0.97;81.42
69411;BME280;56604;48.652;9.194;2023-01-29T03:59:02;97221.19;;;-0.86;81.17
69411;BME280;56604;48.652;9.194;2023-01-29T04:01:49;97232.78;;;-0.91;81.34
69411;BME280;56604;48.652;9.194;2023-01-29T04:04:26;97237.22;;;-1.01;81.25
69411;BME280;56604;48.652;9.194;2023-01-29T04:06:54;97227.72;;;-1.00;81.45
69411;BME280;56604;48.652;9.194;2023-01-29T04:09:27;97223.97;;;-1.06;81.83
69411;BME280;56604;48.652;9.194;2023-01-29T04:12:00;97231.06;;;-1.08;82.11
69411;BME280;56604;48.652;9.194;2023-01-29T04:14:28;97232.38;;;-1.04;81.45
69411;BME280;56604;48.652;9.194;2023-01-29T04:16:56;97229.19;;;-0.98;81.55
69411;BME280;56604;48.652;9.194;2023-01-29T04:19:24;97227.03;;;-0.84;81.00
69411;BME280;56604;48.652;9.194;2023-01-29T04:21:54;97239.94;;;-0.84;80.58
69411;BME280;56604;48.652;9.194;2023-01-29T04:24:21;97228.53;;;-1.00;80.82
69411;BME280;56604;48.652;9.194;2023-01-29T04:29:49;97226.59;;;-0.98;81.02
69411;BME280;56604;48.652;9.194;2023-01-29T04:32:36;97232.06;;;-1.01;81.29
69411;BME280;56604;48.652;9.194;2023-01-29T04:35:20;97247.56;;;-1.01;81.38
69411;BME280;56604;48.652;9.194;2023-01-29T04:38:04;97238.56;;;-0.97;80.76
69411;BME280;56604;48.652;9.194;2023-01-29T04:43:20;97231.50;;;-1.13;82.24
69411;BME280;56604;48.652;9.194;2023-01-29T04:46:21;97230.34;;;-1.18;81.95
69411;BME280;56604;48.652;9.194;2023-01-29T04:49:17;97235.63;;;-1.02;81.55
69411;BME280;56604;48.652;9.194;2023-01-29T04:51:50;97236.00;;;-0.88;80.76
69411;BME280;56604;48.652;9.194;2023-01-29T04:54:24;97223.09;;;-0.97;80.99
69411;BME280;56604;48.652;9.194;2023-01-29T04:57:02;97229.56;;;-0.93;80.64
69411;BME280;56604;48.652;9.194;2023-01-29T04:59:41;97226.53;;;-0.88;79.77
69411;BME280;56604;48.652;9.194;2023-01-29T05:02:08;97227.97;;;-0.85;80.41
69411;BME280;56604;48.652;9.194;2023-01-29T05:04:36;97228.31;;;-0.80;80.33
69411;BME280;56604;48.652;9.194;2023-01-29T05:07:07;97220.94;;;-0.75;79.73
69411;BME280;56604;48.652;9.194;2023-01-29T05:09:35;97232.69;;;-0.81;79.92
69411;BME280;56604;48.652;9.194;2023-01-29T05:12:02;97234.72;;;-0.93;80.56
69411;BME280;56604;48.652;9.194;2023-01-29T05:14:32;97230.91;;;-0.80;80.27
69411;BME280;56604;48.652;9.194;2023-01-29T05:17:02;97234.09;;;-0.86;80.73
69411;BME280;56604;48.652;9.194;2023-01-29T05:19:29;97246.03;;;-0.85;80.57
69411;BME280;56604;48.652;9.194;2023-01-29T05:21:55;97241.66;;;-0.93;80.85
69411;BME280;56604;48.652;9.194;2023-01-29T05:24:23;97232.88;;;-1.00;81.05
69411;BME280;56604;48.652;9.194;2023-01-29T05:26:49;97232.06;;;-0.75;80.95
69411;BME280;56604;48.652;9.194;2023-01-29T05:29:34;97236.97;;;-0.89;81.40
69411;BME280;56604;48.652;9.194;2023-01-29T05:31:59;97227.81;;;-0.84;80.95
69411;BME280;56604;48.652;9.194;2023-01-29T05:34:25;97221.44;;;-0.98;81.14
69411;BME280;56604;48.652;9.194;2023-01-29T05:36:50;97225.66;;;-0.97;81.31
69411;BME280;56604;48.652;9.194;2023-01-29T05:39:15;97233.91;;;-0.93;81.75
69411;BME280;56604;48.652;9.194;2023-01-29T05:41:41;97245.34;;;-0.96;81.67
69411;BME280;56604;48.652;9.194;2023-01-29T05:44:09;97235.47;;;-1.00;82.13
69411;BME280;56604;48.652;9.194;2023-01-29T05:46:34;97237.53;;;-1.04;82.28
69411;BME280;56604;48.652;9.194;2023-01-29T05:49:00;97239.44;;;-1.06;82.55
69411;BME280;56604;48.652;9.194;2023-01-29T05:51:25;97235.06;;;-1.14;82.43
69411;BME280;56604;48.652;9.194;2023-01-29T05:53:50;97234.00;;;-1.03;82.09
69411;BME280;56604;48.652;9.194;2023-01-29T05:56:15;97224.94;;;-1.07;81.92
69411;BME280;56604;48.652;9.194;2023-01-29T05:58:41;97230.16;;;-0.99;81.74
69411;BME280;56604;48.652;9.194;2023-01-29T06:01:12;97219.41;;;-1.12;82.03
69411;BME280;56604;48.652;9.194;2023-01-29T06:03:38;97203.44;;;-0.89;81.94
69411;BME280;56604;48.652;9.194;2023-01-29T06:06:04;97193.41;;;-0.93;81.54
69411;BME280;56604;48.652;9.194;2023-01-29T06:08:29;97198.59;;;-0.93;81.50
69411;BME280;56604;48.652;9.194;2023-01-29T06:10:54;97193.94;;;-1.15;81.50
69411;BME280;56604;48.652;9.194;2023-01-29T06:13:20;97194.66;;;-1.31;82.88
69411;BME280;56604;48.652;9.194;2023-01-29T06:15:45;97202.69;;;-1.52;83.49
69411;BME280;56604;48.652;9.194;2023-01-29T06:18:10;97196.38;;;-1.14;82.30
69411;BME280;56604;48.652;9.194;2023-01-29T06:20:36;97197.91;;;-1.21;81.73
69411;BME280;56604;48.652;9.194;2023-01-29T06:23:01;97201.53;;;-1.31;82.34
69411;BME280;56604;48.652;9.194;2023-01-29T06:25:26;97199.75;;;-1.13;82.14
69411;BME280;56604;48.652;9.194;2023-01-29T06:27:52;97210.75;;;-1.11;81.89
69411;BME280;56604;48.652;9.194;2023-01-29T06:30:17;97215.59;;;-1.08;81.69
69411;BME280;56604;48.652;9.194;2023-01-29T06:32:42;97209.72;;;-1.18;82.02
69411;BME280;56604;48.652;9.194;2023-01-29T06:35:08;97215.59;;;-1.08;81.08
69411;BME280;56604;48.652;9.194;2023-01-29T06:37:34;97219.72;;;-1.15;81.38
69411;BME280;56604;48.652;9.194;2023-01-29T06:40:00;97219.72;;;-1.15;81.38
69411;BME280;56604;48.652;9.194;2023-01-29T06:42:25;97219.47;;;-1.04;81.04
69411;BME280;56604;48.652;9.194;2023-01-29T06:44:55;97218.72;;;-1.22;80.19
69411;BME280;56604;48.652;9.194;2023-01-29T06:47:22;97221.44;;;-0.98;78.75
69411;BME280;56604;48.652;9.194;2023-01-29T06:49:47;97217.31;;;-0.91;79.06
69411;BME280;56604;48.652;9.194;2023-01-29T06:52:12;97227.72;;;-1.00;80.09
69411;BME280;56604;48.652;9.194;2023-01-29T06:54:38;97230.47;;;-1.02;81.04
69411;BME280;56604;48.652;9.194;2023-01-29T06:57:03;97232.69;;;-1.07;81.56
69411;BME280;56604;48.652;9.194;2023-01-29T06:59:28;97229.56;;;-0.93;81.15
69411;BME280;56604;48.652;9.194;2023-01-29T07:01:54;97226.66;;;-0.89;80.51
69411;BME280;56604;48.652;9.194;2023-01-29T07:04:19;97230.84;;;-0.88;80.07
69411;BME280;56604;48.652;9.194;2023-01-29T07:06:44;97230.53;;;-0.85;80.57
69411;BME280;56604;48.652;9.194;2023-01-29T07:09:13;97231.06;;;-0.82;79.96
69411;BME280;56604;48.652;9.194;2023-01-29T07:11:38;97238.97;;;-0.83;79.37
69411;BME280;56604;48.652;9.194;2023-01-29T07:14:04;97240.19;;;-0.96;80.35
69411;BME280;56604;48.652;9.194;2023-01-29T07:16:30;97236.63;;;-0.95;79.24
69411;BME280;56604;48.652;9.194;2023-01-29T07:18:55;97246.56;;;-1.08;78.04
69411;BME280;56604;48.652;9.194;2023-01-29T07:21:21;97242.34;;;-1.09;77.40
69411;BME280;56604;48.652;9.194;2023-01-29T07:23:47;97234.66;;;-1.01;78.01
69411;BME280;56604;48.652;9.194;2023-01-29T07:26:12;97237.41;;;-1.02;78.51
69411;BME280;56604;48.652;9.194;2023-01-29T07:28:38;97242.56;;;-1.02;77.94
69411;BME280;56604;48.652;9.194;2023-01-29T07:31:04;97243.44;;;-0.94;78.19
69411;BME280;56604;48.652;9.194;2023-01-29T07:33:30;97253.19;;;-1.23;78.88
69411;BME280;56604;48.652;9.194;2023-01-29T07:35:55;97244.84;;;-0.99;78.37
69411;BME280;56604;48.652;9.194;2023-01-29T07:38:21;97238.84;;;-1.00;78.09
69411;BME280;56604;48.652;9.194;2023-01-29T07:40:46;97239.22;;;-0.95;78.47
69411;BME280;56604;48.652;9.194;2023-01-29T07:43:12;97253.28;;;-0.89;77.98
69411;BME280;56604;48.652;9.194;2023-01-29T07:45:38;97254.44;;;-0.83;77.36
69411;BME280;56604;48.652;9.194;2023-01-29T07:48:05;97266.69;;;-0.85;77.95
69411;BME280;56604;48.652;9.194;2023-01-29T07:50:32;97259.38;;;-1.16;78.79
69411;BME280;56604;48.652;9.194;2023-01-29T07:52:58;97261.50;;;-1.11;78.32
69411;BME280;56604;48.652;9.194;2023-01-29T07:55:23;97265.06;;;-0.86;77.96
69411;BME280;56604;48.652;9.194;2023-01-29T07:58:00;97269.47;;;-1.05;78.03
69411;BME280;56604;48.652;9.194;2023-01-29T08:00:27;97269.06;;;-0.92;77.67
69411;BME280;56604;48.652;9.194;2023-01-29T08:02:52;97260.94;;;-0.79;78.03
69411;BME280;56604;48.652;9.194;2023-01-29T08:05:18;97271.47;;;-0.73;76.92
69411;BME280;56604;48.652;9.194;2023-01-29T08:07:43;97276.00;;;-0.66;76.59
69411;BME280;56604;48.652;9.194;2023-01-29T08:10:09;97271.75;;;-0.50;76.27
69411;BME280;56604;48.652;9.194;2023-01-29T08:12:35;97272.44;;;-0.92;76.13
69411;BME280;56604;48.652;9.194;2023-01-29T08:15:00;97276.72;;;-0.82;77.15
69411;BME280;56604;48.652;9.194;2023-01-29T08:17:25;97277.13;;;-0.69;76.28
69411;BME280;56604;48.652;9.194;2023-01-29T08:19:51;97276.44;;;-0.79;76.69
69411;BME280;56604;48.652;9.194;2023-01-29T08:22:16;97267.41;;;-0.75;76.32
69411;BME280;56604;48.652;9.194;2023-01-29T08:24:42;97263.94;;;-0.58;76.24
69411;BME280;56604;48.652;9.194;2023-01-29T08:27:07;97259.34;;;-0.72;76.59
69411;BME280;56604;48.652;9.194;2023-01-29T08:29:33;97258.91;;;-0.68;77.11
69411;BME280;56604;48.652;9.194;2023-01-29T08:31:58;97263.63;;;-0.55;76.79
69411;BME280;56604;48.652;9.194;2023-01-29T08:34:25;97269.03;;;-0.40;75.94
69411;BME280;56604;48.652;9.194;2023-01-29T08:36:50;97280.53;;;-0.34;76.02
69411;BME280;56604;48.652;9.194;2023-01-29T08:39:15;97279.53;;;-0.41;76.25
69411;BME280;56604;48.652;9.194;2023-01-29T08:41:41;97287.25;;;-0.50;75.73
69411;BME280;56604;48.652;9.194;2023-01-29T08:44:07;97290.38;;;-0.38;78.01
69411;BME280;56604;48.652;9.194;2023-01-29T08:46:32;97296.84;;;-0.60;76.19
69411;BME280;56604;48.652;9.194;2023-01-29T08:48:58;97292.22;;;-0.56;75.29
69411;BME280;56604;48.652;9.194;2023-01-29T08:51:24;97293.50;;;-0.52;75.69
69411;BME280;56604;48.652;9.194;2023-01-29T08:53:50;97279.66;;;-0.09;73.55
69411;BME280;56604;48.652;9.194;2023-01-29T08:56:15;97282.19;;;-0.59;74.69
69411;BME280;56604;48.652;9.194;2023-01-29T08:58:41;97285.81;;;-0.44;74.22
69411;BME280;56604;48.652;9.194;2023-01-29T09:01:12;97291.59;;;-0.16;74.26
69411;BME280;56604;48.652;9.194;2023-01-29T09:03:38;97299.22;;;-0.06;73.60
69411;BME280;56604;48.652;9.194;2023-01-29T09:06:13;97297.00;;;-0.01;73.33
69411;BME280;56604;48.652;9.194;2023-01-29T09:08:39;97303.16;;;0.06;73.56
69411;BME280;56604;48.652;9.194;2023-01-29T09:11:05;97300.72;;;0.05;73.87
69411;BME280;56604;48.652;9.194;2023-01-29T09:13:30;97297.56;;;0.27;73.14
69411;BME280;56604;48.652;9.194;2023-01-29T09:16:00;97300.31;;;0.17;72.94
69411;BME280;56604;48.652;9.194;2023-01-29T09:18:26;97297.00;;;-0.01;72.63
69411;BME280;56604;48.652;9.194;2023-01-29T09:20:52;97303.59;;;-0.07;72.71
69411;BME280;56604;48.652;9.194;2023-01-29T09:23:17;97303.81;;;-0.26;73.04
69411;BME280;56604;48.652;9.194;2023-01-29T09:25:44;97309.19;;;0.15;71.64
69411;BME280;56604;48.652;9.194;2023-01-29T09:28:10;97308.19;;;0.16;72.04
69411;BME280;56604;48.652;9.194;2023-01-29T09:30:35;97302.94;;;0.50;71.72
69411;BME280;56604;48.652;9.194;2023-01-29T09:33:03;97299.38;;;0.51;71.17
69411;BME280;56604;48.652;9.194;2023-01-29T09:35:29;97303.72;;;0.26;71.60
69411;BME280;56604;48.652;9.194;2023-01-29T09:37:54;97293.69;;;0.23;72.36
69411;BME280;56604;48.652;9.194;2023-01-29T09:40:33;97296.97;;;0.50;72.36
69411;BME280;56604;48.652;9.194;2023-01-29T09:43:07;97299.91;;;0.71;70.74
69411;BME280;56604;48.652;9.194;2023-01-29T09:45:34;97294.09;;;0.69;70.41
69411;BME280;56604;48.652;9.194;2023-01-29T09:48:02;97303.44;;;0.62;71.33
69411;BME280;56604;48.652;9.194;2023-01-29T09:50:41;97300.06;;;0.70;70.07
69411;BME280;56604;48.652;9.194;2023-01-29T09:56:05;97292.81;;;0.81;71.10
69411;BME280;56604;48.652;9.194;2023-01-29T09:58:37;97288.59;;;0.80;70.09
69411;BME280;56604;48.652;9.194;2023-01-29T10:17:36;97245.38;;;0.32;72.27
69411;BME280;56604;48.652;9.194;2023-01-29T10:25:39;97227.53;;;1.35;69.18
69411;BME280;56604;48.652;9.194;2023-01-29T10:28:18;97224.72;;;0.73;69.13
69411;BME280;56604;48.652;9.194;2023-01-29T10:30:49;97217.06;;;1.12;69.04
69411;BME280;56604;48.652;9.194;2023-01-29T10:33:31;97222.72;;;1.71;68.10
69411;BME280;56604;48.652;9.194;2023-01-29T10:36:02;97225.34;;;1.63;67.43
69411;BME280;56604;48.652;9.194;2023-01-29T10:46:40;97230.31;;;2.12;66.47
69411;BME280;56604;48.652;9.194;2023-01-29T10:49:34;97230.91;;;2.22;65.01
69411;BME280;56604;48.652;9.194;2023-01-29T10:52:16;97234.84;;;2.10;65.79
69411;BME280;56604;48.652;9.194;2023-01-29T11:02:43;97217.78;;;1.85;65.14
69411;BME280;56604;48.652;9.194;2023-01-29T11:05:36;97224.72;;;1.53;66.02
69411;BME280;56604;48.652;9.194;2023-01-29T11:08:10;97227.19;;;1.86;65.42
69411;BME280;56604;48.652;9.194;2023-01-29T11:10:43;97216.44;;;2.28;65.86
69411;BME280;56604;48.652;9.194;2023-01-29T11:13:13;97213.59;;;2.15;64.22
69411;BME280;56604;48.652;9.194;2023-01-29T11:15:39;97212.06;;;2.29;63.01
69411;BME280;56604;48.652;9.194;2023-01-29T11:18:08;97215.78;;;2.72;63.59
69411;BME280;56604;48.652;9.194;2023-01-29T11:20:39;97221.06;;;2.10;62.99
69411;BME280;56604;48.652;9.194;2023-01-29T11:23:05;97218.31;;;2.11;62.92
69411;BME280;56604;48.652;9.194;2023-01-29T11:25:31;97227.56;;;1.74;64.11
69411;BME280;56604;48.652;9.194;2023-01-29T11:28:01;97214.75;;;2.12;62.88
69411;BME280;56604;48.652;9.194;2023-01-29T11:30:34;97212.84;;;2.75;62.00
69411;BME280;56604;48.652;9.194;2023-01-29T11:33:17;97212.97;;;2.59;62.60
69411;BME280;56604;48.652;9.194;2023-01-29T11:35:43;97207.66;;;2.90;62.22
69411;BME280;56604;48.652;9.194;2023-01-29T11:40:41;97195.28;;;3.45;61.31
69411;BME280;56604;48.652;9.194;2023-01-29T11:43:28;97201.94;;;3.83;59.96
69411;BME280;56604;48.652;9.194;2023-01-29T11:46:04;97193.34;;;3.83;60.24
69411;BME280;56604;48.652;9.194;2023-01-29T11:48:47;97193.63;;;3.88;59.26
69411;BME280;56604;48.652;9.194;2023-01-29T11:51:24;97196.25;;;2.99;59.35
69411;BME280;56604;48.652;9.194;2023-01-29T11:53:53;97178.69;;;3.60;58.40
69411;BME280;56604;48.652;9.194;2023-01-29T11:56:49;97178.06;;;3.14;60.44
69411;BME280;56604;48.652;9.194;2023-01-29T11:59:40;97179.56;;;3.68;59.42
69411;BME280;56604;48.652;9.194;2023-01-29T12:04:59;97179.31;;;3.33;60.52
69411;BME280;56604;48.652;9.194;2023-01-29T12:07:26;97170.72;;;3.62;59.66
69411;BME280;56604;48.652;9.194;2023-01-29T12:09:54;97172.38;;;3.70;59.17
69411;BME280;56604;48.652;9.194;2023-01-29T12:17:35;97164.38;;;3.05;60.40
69411;BME280;56604;48.652;9.194;2023-01-29T12:20:13;97157.88;;;2.72;61.05
69411;BME280;56604;48.652;9.194;2023-01-29T12:22:44;97146.78;;;2.78;61.48
69411;BME280;56604;48.652;9.194;2023-01-29T12:25:22;97147.47;;;2.72;61.56
69411;BME280;56604;48.652;9.194;2023-01-29T12:28:03;97141.88;;;3.27;60.48
69411;BME280;56604;48.652;9.194;2023-01-29T12:36:20;97114.38;;;2.74;62.22
69411;BME280;56604;48.652;9.194;2023-01-29T12:38:46;97105.59;;;2.75;61.76
69411;BME280;56604;48.652;9.194;2023-01-29T12:41:27;97091.72;;;2.30;63.84
69411;BME280;56604;48.652;9.194;2023-01-29T12:46:50;97072.28;;;2.63;63.75
69411;BME280;56604;48.652;9.194;2023-01-29T12:49:28;97071.56;;;2.55;63.61
69411;BME280;56604;48.652;9.194;2023-01-29T12:52:37;97057.97;;;2.97;62.65
69411;BME280;56604;48.652;9.194;2023-01-29T12:55:25;97055.09;;;2.62;62.38
69411;BME280;56604;48.652;9.194;2023-01-29T12:57:57;97050.22;;;2.30;64.17
69411;BME280;56604;48.652;9.194;2023-01-29T13:00:31;97046.88;;;2.74;63.43
69411;BME280;56604;48.652;9.194;2023-01-29T13:08:20;97041.47;;;2.90;62.79
69411;BME280;56604;48.652;9.194;2023-01-29T13:10:50;97044.72;;;2.62;65.16
69411;BME280;56604;48.652;9.194;2023-01-29T13:13:33;97040.41;;;2.84;61.70
69411;BME280;56604;48.652;9.194;2023-01-29T13:16:03;97045.22;;;3.17;61.21
69411;BME280;56604;48.652;9.194;2023-01-29T13:18:39;97041.56;;;3.11;61.59
69411;BME280;56604;48.652;9.194;2023-01-29T13:21:10;97045.91;;;3.26;60.47
69411;BME280;56604;48.652;9.194;2023-01-29T13:23:42;97039.59;;;3.13;60.44
69411;BME280;56604;48.652;9.194;2023-01-29T13:26:10;97042.09;;;2.92;60.41
69411;BME280;56604;48.652;9.194;2023-01-29T13:28:35;97045.16;;;2.66;60.08
69411;BME280;56604;48.652;9.194;2023-01-29T13:33:36;97032.91;;;2.45;63.71
69411;BME280;56604;48.652;9.194;2023-01-29T13:36:02;97031.03;;;2.54;64.28
69411;BME280;56604;48.652;9.194;2023-01-29T13:38:32;97042.66;;;2.43;64.33
69411;BME280;56604;48.652;9.194;2023-01-29T13:41:02;97034.13;;;2.79;63.42
69411;BME280;56604;48.652;9.194;2023-01-29T13:43:34;97034.84;;;3.02;63.16
69411;BME280;56604;48.652;9.194;2023-01-29T13:46:07;97035.31;;;2.76;62.27
69411;BME280;56604;48.652;9.194;2023-01-29T13:48:40;97033.81;;;2.82;62.62
69411;BME280;56604;48.652;9.194;2023-01-29T13:51:10;97043.97;;;2.98;62.34
69411;BME280;56604;48.652;9.194;2023-01-29T13:53:41;97036.47;;;3.03;62.16
69411;BME280;56604;48.652;9.194;2023-01-29T13:58:55;97041.66;;;2.88;60.87
69411;BME280;56604;48.652;9.194;2023-01-29T14:06:51;97049.03;;;2.85;62.25
69411;BME280;56604;48.652;9.194;2023-01-29T14:12:00;97051.16;;;2.96;61.97
69411;BME280;56604;48.652;9.194;2023-01-29T14:17:18;97059.31;;;2.63;62.92
69411;BME280;56604;48.652;9.194;2023-01-29T14:19:52;97056.78;;;2.70;62.74
69411;BME280;56604;48.652;9.194;2023-01-29T14:22:23;97053.75;;;2.66;62.70
69411;BME280;56604;48.652;9.194;2023-01-29T14:24:56;97054.75;;;2.65;63.36
69411;BME280;56604;48.652;9.194;2023-01-29T14:27:24;97054.22;;;2.85;62.72
69411;BME280;56604;48.652;9.194;2023-01-29T14:29:50;97062.19;;;2.68;62.95
69411;BME280;56604;48.652;9.194;2023-01-29T14:32:24;97058.50;;;2.78;63.10
69411;BME280;56604;48.652;9.194;2023-01-29T14:34:57;97060.47;;;2.61;63.43
69411;BME280;56604;48.652;9.194;2023-01-29T14:37:35;97063.25;;;2.21;64.27
69411;BME280;56604;48.652;9.194;2023-01-29T14:42:44;97050.56;;;2.27;65.26
69411;BME280;56604;48.652;9.194;2023-01-29T14:45:29;97047.75;;;2.13;65.94
69411;BME280;56604;48.652;9.194;2023-01-29T14:53:05;97060.19;;;2.03;65.91
69411;BME280;56604;48.652;9.194;2023-01-29T14:55:38;97058.56;;;2.02;66.24
69411;BME280;56604;48.652;9.194;2023-01-29T14:58:05;97055.91;;;1.87;66.71
69411;BME280;56604;48.652;9.194;2023-01-29T15:00:37;97056.47;;;1.83;67.53
69411;BME280;56604;48.652;9.194;2023-01-29T15:05:55;97041.16;;;1.65;67.79
69411;BME280;56604;48.652;9.194;2023-01-29T15:08:27;97037.25;;;1.46;68.42
69411;BME280;56604;48.652;9.194;2023-01-29T15:10:56;97033.09;;;1.37;68.35
69411;BME280;56604;48.652;9.194;2023-01-29T15:16:26;97039.97;;;1.21;69.04
69411;BME280;56604;48.652;9.194;2023-01-29T15:19:03;97045.63;;;1.25;68.68